메인 페이지
METAR-TAF:

METAR-TAF

공항 :

고바노르 프란시스코 가브리엘리 국제공항

멘도사, 아르헨티나

위도: 32-50S, 경도: 068-47W, 고도: 705m

현재 날씨관측

예보는 18분 전, 20:00시(UTC)에 발표되었습니다.
북북서19kt, 순간 최대 풍속 29kt
온도 26°C
습도 34%
기압 1002 hPa
시정 10km 이상
1500m 미만 상공 구름 및 적란운 없음

METAR: SAME 182000Z 34019G29KT CAVOK 26/09 Q1002

시각: 17:18 (20:18 UTC)

예보

예보는 3 시간 18분 전, 17:00시(UTC)에 발표되었습니다.
예보 대상 시간: 18일 18시부터 19일 18시까지 (UTC)
북서15kt
시정: 6000m
고도 4000ft 상공 구름 조금
고도 10000ft 상공 구름 보통
강한 먼지 또는 모래회오리
전환 중
19일 00시부터 19일 02시까지 (UTC)
15kt
시정 10km 이상
고도 4000ft 상공 구름 보통
고도 5000ft 상공 구름 조금, 적란운.
고도 10000ft 상공 구름 보통
시계 내 뇌우

TAF: SAME 181700Z 1818/1918 32015KT 6000 PO FEW040 SCT100 TX25/1820Z TN08/1910Z BECMG 1900/1902 18015KT 9999 VCTS SCT040 FEW050CB SCT100

4,000개 이상의 공항 관측 자료 및 예보 (METAR 및 TAF 보고).

지도상에서 검색 가능한 기상관측소가 노란 점과 빨간 점으로 표시되어 있습니다.

기상관측소 명을 보려면 표시 위로 마우스를 이동하세요.

날씨 관측과 예보를 보려면 클릭하세요.

지도 변경 : 확대하려면 엑스 표시가 있는 녹색 버튼, 축소하려면 빼기 표시가 있는 녹색 버튼, 다음 페이지의 지도를 보려면 녹색 화살표를 클릭하세요.


METAR-TAF: